sensor_id;sensor_type;location;lat;lon;timestamp;temperature;humidity
10968;DHT22;5536;49.602;10.980;2023-08-12T00:00:32;19.40;99.90
10968;DHT22;5536;49.602;10.980;2023-08-12T00:02:59;19.40;99.90
10968;DHT22;5536;49.602;10.980;2023-08-12T00:05:26;19.40;99.90
10968;DHT22;5536;49.602;10.980;2023-08-12T00:07:53;19.40;99.90
10968;DHT22;5536;49.602;10.980;2023-08-12T00:10:21;19.40;99.90
10968;DHT22;5536;49.602;10.980;2023-08-12T00:12:48;19.30;99.90
10968;DHT22;5536;49.602;10.980;2023-08-12T00:15:15;19.20;99.90
10968;DHT22;5536;49.602;10.980;2023-08-12T00:17:42;19.10;99.90
10968;DHT22;5536;49.602;10.980;2023-08-12T00:20:10;18.90;99.90
10968;DHT22;5536;49.602;10.980;2023-08-12T00:22:38;18.90;99.90
10968;DHT22;5536;49.602;10.980;2023-08-12T00:25:06;18.80;99.90
10968;DHT22;5536;49.602;10.980;2023-08-12T00:27:34;18.80;99.90
10968;DHT22;5536;49.602;10.980;2023-08-12T00:30:04;18.70;99.90
10968;DHT22;5536;49.602;10.980;2023-08-12T00:32:31;18.70;99.90
10968;DHT22;5536;49.602;10.980;2023-08-12T00:34:58;18.60;99.90
10968;DHT22;5536;49.602;10.980;2023-08-12T00:37:24;18.70;99.90
10968;DHT22;5536;49.602;10.980;2023-08-12T00:39:51;18.50;99.90
10968;DHT22;5536;49.602;10.980;2023-08-12T00:42:18;18.50;99.90
10968;DHT22;5536;49.602;10.980;2023-08-12T00:44:47;18.50;99.90
10968;DHT22;5536;49.602;10.980;2023-08-12T00:47:14;18.50;99.90
10968;DHT22;5536;49.602;10.980;2023-08-12T00:49:42;18.50;99.90
10968;DHT22;5536;49.602;10.980;2023-08-12T00:52:10;18.50;99.90
10968;DHT22;5536;49.602;10.980;2023-08-12T00:54:37;18.40;99.90
10968;DHT22;5536;49.602;10.980;2023-08-12T00:57:05;18.50;99.90
10968;DHT22;5536;49.602;10.980;2023-08-12T00:59:34;18.50;99.90
10968;DHT22;5536;49.602;10.980;2023-08-12T01:02:03;18.50;99.90
10968;DHT22;5536;49.602;10.980;2023-08-12T01:04:31;18.40;99.90
10968;DHT22;5536;49.602;10.980;2023-08-12T01:06:58;18.30;99.90
10968;DHT22;5536;49.602;10.980;2023-08-12T01:09:25;18.30;99.90
10968;DHT22;5536;49.602;10.980;2023-08-12T01:11:57;18.20;99.90
10968;DHT22;5536;49.602;10.980;2023-08-12T01:14:30;18.30;99.90
10968;DHT22;5536;49.602;10.980;2023-08-12T01:17:03;18.20;99.90
10968;DHT22;5536;49.602;10.980;2023-08-12T01:19:33;18.30;99.90
10968;DHT22;5536;49.602;10.980;2023-08-12T01:22:02;18.20;99.90
10968;DHT22;5536;49.602;10.980;2023-08-12T01:24:35;18.20;99.90
10968;DHT22;5536;49.602;10.980;2023-08-12T01:27:03;18.20;99.90
10968;DHT22;5536;49.602;10.980;2023-08-12T01:29:30;18.30;99.90
10968;DHT22;5536;49.602;10.980;2023-08-12T01:32:07;18.20;99.90
10968;DHT22;5536;49.602;10.980;2023-08-12T01:34:41;18.10;99.90
10968;DHT22;5536;49.602;10.980;2023-08-12T01:37:12;18.00;99.90
10968;DHT22;5536;49.602;10.980;2023-08-12T01:39:43;18.00;99.90
10968;DHT22;5536;49.602;10.980;2023-08-12T01:42:12;17.90;99.90
10968;DHT22;5536;49.602;10.980;2023-08-12T01:44:39;18.00;99.90
10968;DHT22;5536;49.602;10.980;2023-08-12T01:47:08;18.00;99.90
10968;DHT22;5536;49.602;10.980;2023-08-12T01:49:35;18.00;99.90
10968;DHT22;5536;49.602;10.980;2023-08-12T01:52:03;18.00;99.90
10968;DHT22;5536;49.602;10.980;2023-08-12T01:54:30;18.00;99.90
10968;DHT22;5536;49.602;10.980;2023-08-12T01:57:02;17.90;99.90
10968;DHT22;5536;49.602;10.980;2023-08-12T01:59:31;17.90;99.90
10968;DHT22;5536;49.602;10.980;2023-08-12T02:01:58;17.90;99.90
10968;DHT22;5536;49.602;10.980;2023-08-12T02:04:25;17.90;99.90
10968;DHT22;5536;49.602;10.980;2023-08-12T02:06:52;17.90;99.90
10968;DHT22;5536;49.602;10.980;2023-08-12T02:09:19;17.90;99.90
10968;DHT22;5536;49.602;10.980;2023-08-12T02:11:46;17.90;99.90
10968;DHT22;5536;49.602;10.980;2023-08-12T02:14:15;18.00;99.90
10968;DHT22;5536;49.602;10.980;2023-08-12T02:16:42;18.00;99.90
10968;DHT22;5536;49.602;10.980;2023-08-12T02:19:08;17.90;99.90
10968;DHT22;5536;49.602;10.980;2023-08-12T02:21:35;17.90;99.90
10968;DHT22;5536;49.602;10.980;2023-08-12T02:24:03;17.80;99.90
10968;DHT22;5536;49.602;10.980;2023-08-12T02:26:30;17.80;99.90
10968;DHT22;5536;49.602;10.980;2023-08-12T02:28:57;17.70;99.90
10968;DHT22;5536;49.602;10.980;2023-08-12T02:31:25;17.70;99.90
10968;DHT22;5536;49.602;10.980;2023-08-12T02:33:52;17.70;99.90
10968;DHT22;5536;49.602;10.980;2023-08-12T02:36:19;17.60;99.90
10968;DHT22;5536;49.602;10.980;2023-08-12T02:38:46;17.70;99.90
10968;DHT22;5536;49.602;10.980;2023-08-12T02:41:13;17.70;99.90
10968;DHT22;5536;49.602;10.980;2023-08-12T02:43:40;17.70;99.90
10968;DHT22;5536;49.602;10.980;2023-08-12T02:46:07;17.60;99.90
10968;DHT22;5536;49.602;10.980;2023-08-12T02:48:39;17.50;99.90
10968;DHT22;5536;49.602;10.980;2023-08-12T02:51:08;17.50;99.90
10968;DHT22;5536;49.602;10.980;2023-08-12T02:53:46;17.50;99.90
10968;DHT22;5536;49.602;10.980;2023-08-12T02:56:16;17.50;99.90
10968;DHT22;5536;49.602;10.980;2023-08-12T02:58:43;17.50;99.90
10968;DHT22;5536;49.602;10.980;2023-08-12T03:01:10;17.50;99.90
10968;DHT22;5536;49.602;10.980;2023-08-12T03:03:39;17.50;99.90
10968;DHT22;5536;49.602;10.980;2023-08-12T03:06:06;17.50;99.90
10968;DHT22;5536;49.602;10.980;2023-08-12T03:08:32;17.50;99.90
10968;DHT22;5536;49.602;10.980;2023-08-12T03:11:00;17.40;99.90
10968;DHT22;5536;49.602;10.980;2023-08-12T03:13:27;17.50;99.90
10968;DHT22;5536;49.602;10.980;2023-08-12T03:15:54;17.50;99.90
10968;DHT22;5536;49.602;10.980;2023-08-12T03:18:21;17.40;99.90
10968;DHT22;5536;49.602;10.980;2023-08-12T03:20:49;17.50;99.90
10968;DHT22;5536;49.602;10.980;2023-08-12T03:23:16;17.50;99.90
10968;DHT22;5536;49.602;10.980;2023-08-12T03:25:43;17.40;99.90
10968;DHT22;5536;49.602;10.980;2023-08-12T03:28:10;17.40;99.90
10968;DHT22;5536;49.602;10.980;2023-08-12T03:30:37;17.40;99.90
10968;DHT22;5536;49.602;10.980;2023-08-12T03:33:04;17.40;99.90
10968;DHT22;5536;49.602;10.980;2023-08-12T03:35:31;17.50;99.90
10968;DHT22;5536;49.602;10.980;2023-08-12T03:38:00;17.50;99.90
10968;DHT22;5536;49.602;10.980;2023-08-12T03:40:27;17.50;99.90
10968;DHT22;5536;49.602;10.980;2023-08-12T03:42:53;17.40;99.90
10968;DHT22;5536;49.602;10.980;2023-08-12T03:45:20;17.40;99.90
10968;DHT22;5536;49.602;10.980;2023-08-12T03:47:48;17.30;99.90
10968;DHT22;5536;49.602;10.980;2023-08-12T03:50:15;17.30;99.90
10968;DHT22;5536;49.602;10.980;2023-08-12T03:52:42;17.30;99.90
10968;DHT22;5536;49.602;10.980;2023-08-12T03:55:11;17.20;99.90
10968;DHT22;5536;49.602;10.980;2023-08-12T03:57:38;17.30;99.90
10968;DHT22;5536;49.602;10.980;2023-08-12T04:00:06;17.40;99.90
10968;DHT22;5536;49.602;10.980;2023-08-12T04:02:34;17.30;99.90
10968;DHT22;5536;49.602;10.980;2023-08-12T04:05:01;17.30;99.90
10968;DHT22;5536;49.602;10.980;2023-08-12T04:07:28;17.20;99.90
10968;DHT22;5536;49.602;10.980;2023-08-12T04:09:55;17.30;99.90
10968;DHT22;5536;49.602;10.980;2023-08-12T04:12:23;17.30;99.90
10968;DHT22;5536;49.602;10.980;2023-08-12T04:14:50;17.30;99.90
10968;DHT22;5536;49.602;10.980;2023-08-12T04:17:17;17.20;99.90
10968;DHT22;5536;49.602;10.980;2023-08-12T04:19:44;17.20;99.90
10968;DHT22;5536;49.602;10.980;2023-08-12T04:22:11;17.10;99.90
10968;DHT22;5536;49.602;10.980;2023-08-12T04:24:38;17.10;99.90
10968;DHT22;5536;49.602;10.980;2023-08-12T04:27:05;17.10;99.90
10968;DHT22;5536;49.602;10.980;2023-08-12T04:29:34;17.20;99.90
10968;DHT22;5536;49.602;10.980;2023-08-12T04:32:01;17.20;99.90
10968;DHT22;5536;49.602;10.980;2023-08-12T04:34:28;17.20;99.90
10968;DHT22;5536;49.602;10.980;2023-08-12T04:36:55;17.20;99.90
10968;DHT22;5536;49.602;10.980;2023-08-12T04:39:22;17.30;99.90
10968;DHT22;5536;49.602;10.980;2023-08-12T04:41:49;17.30;99.90
10968;DHT22;5536;49.602;10.980;2023-08-12T04:44:15;17.30;99.90
10968;DHT22;5536;49.602;10.980;2023-08-12T04:46:44;17.30;99.90
10968;DHT22;5536;49.602;10.980;2023-08-12T04:49:12;17.40;99.90
10968;DHT22;5536;49.602;10.980;2023-08-12T04:51:39;17.50;99.90
10968;DHT22;5536;49.602;10.980;2023-08-12T04:54:06;17.40;99.90
10968;DHT22;5536;49.602;10.980;2023-08-12T04:56:33;17.40;99.90
10968;DHT22;5536;49.602;10.980;2023-08-12T04:59:00;17.50;99.90
10968;DHT22;5536;49.602;10.980;2023-08-12T05:01:28;17.50;99.90
10968;DHT22;5536;49.602;10.980;2023-08-12T05:03:56;17.50;99.90
10968;DHT22;5536;49.602;10.980;2023-08-12T05:06:22;17.60;99.90
10968;DHT22;5536;49.602;10.980;2023-08-12T05:08:50;17.50;99.90
10968;DHT22;5536;49.602;10.980;2023-08-12T05:11:17;17.60;99.90
10968;DHT22;5536;49.602;10.980;2023-08-12T05:13:44;17.60;99.90
10968;DHT22;5536;49.602;10.980;2023-08-12T05:16:11;17.60;99.90
10968;DHT22;5536;49.602;10.980;2023-08-12T05:18:38;17.70;99.90
10968;DHT22;5536;49.602;10.980;2023-08-12T05:21:06;17.70;99.90
10968;DHT22;5536;49.602;10.980;2023-08-12T05:23:33;17.80;99.90
10968;DHT22;5536;49.602;10.980;2023-08-12T05:26:00;17.90;99.90
10968;DHT22;5536;49.602;10.980;2023-08-12T05:28:27;18.00;99.90
10968;DHT22;5536;49.602;10.980;2023-08-12T05:30:55;18.00;99.90
10968;DHT22;5536;49.602;10.980;2023-08-12T05:33:22;18.10;99.90
10968;DHT22;5536;49.602;10.980;2023-08-12T05:35:49;18.20;99.90
10968;DHT22;5536;49.602;10.980;2023-08-12T05:38:18;18.40;99.90
10968;DHT22;5536;49.602;10.980;2023-08-12T05:40:45;18.60;99.90
10968;DHT22;5536;49.602;10.980;2023-08-12T05:43:12;18.80;99.90
10968;DHT22;5536;49.602;10.980;2023-08-12T05:45:39;18.90;99.90
10968;DHT22;5536;49.602;10.980;2023-08-12T05:48:07;19.10;99.90
10968;DHT22;5536;49.602;10.980;2023-08-12T05:50:34;19.20;99.90
10968;DHT22;5536;49.602;10.980;2023-08-12T05:53:01;19.20;99.90
10968;DHT22;5536;49.602;10.980;2023-08-12T05:55:30;19.20;99.90
10968;DHT22;5536;49.602;10.980;2023-08-12T05:57:57;19.30;99.90
10968;DHT22;5536;49.602;10.980;2023-08-12T06:00:24;19.30;99.90
10968;DHT22;5536;49.602;10.980;2023-08-12T06:02:51;19.40;99.90
10968;DHT22;5536;49.602;10.980;2023-08-12T06:05:18;19.40;99.90
10968;DHT22;5536;49.602;10.980;2023-08-12T06:07:45;19.50;99.90
10968;DHT22;5536;49.602;10.980;2023-08-12T06:10:12;19.50;99.90
10968;DHT22;5536;49.602;10.980;2023-08-12T06:12:40;19.60;99.90
10968;DHT22;5536;49.602;10.980;2023-08-12T06:15:08;19.70;99.90
10968;DHT22;5536;49.602;10.980;2023-08-12T06:17:35;19.70;99.90
10968;DHT22;5536;49.602;10.980;2023-08-12T06:20:02;19.70;99.90
10968;DHT22;5536;49.602;10.980;2023-08-12T06:22:29;19.70;99.90
10968;DHT22;5536;49.602;10.980;2023-08-12T06:24:56;19.80;99.90
10968;DHT22;5536;49.602;10.980;2023-08-12T06:27:24;19.90;99.90
10968;DHT22;5536;49.602;10.980;2023-08-12T06:29:52;19.90;99.90
10968;DHT22;5536;49.602;10.980;2023-08-12T06:32:19;19.90;99.90
10968;DHT22;5536;49.602;10.980;2023-08-12T06:34:46;20.00;99.90
10968;DHT22;5536;49.602;10.980;2023-08-12T06:37:13;20.00;99.90
10968;DHT22;5536;49.602;10.980;2023-08-12T06:39:40;20.10;99.90
10968;DHT22;5536;49.602;10.980;2023-08-12T06:42:07;20.20;99.90
10968;DHT22;5536;49.602;10.980;2023-08-12T06:44:34;20.30;99.90
10968;DHT22;5536;49.602;10.980;2023-08-12T06:47:03;20.30;99.90
10968;DHT22;5536;49.602;10.980;2023-08-12T06:49:30;20.40;99.90
10968;DHT22;5536;49.602;10.980;2023-08-12T06:51:57;20.50;99.90
10968;DHT22;5536;49.602;10.980;2023-08-12T06:54:24;20.50;99.90
10968;DHT22;5536;49.602;10.980;2023-08-12T06:56:51;20.50;99.90
10968;DHT22;5536;49.602;10.980;2023-08-12T06:59:19;20.50;99.90
10968;DHT22;5536;49.602;10.980;2023-08-12T07:01:46;20.60;99.90
10968;DHT22;5536;49.602;10.980;2023-08-12T07:04:14;20.60;99.90
10968;DHT22;5536;49.602;10.980;2023-08-12T07:06:41;20.70;99.90
10968;DHT22;5536;49.602;10.980;2023-08-12T07:09:08;20.70;99.90
10968;DHT22;5536;49.602;10.980;2023-08-12T07:11:35;20.80;99.90
10968;DHT22;5536;49.602;10.980;2023-08-12T07:14:03;20.90;99.90
10968;DHT22;5536;49.602;10.980;2023-08-12T07:16:30;20.90;99.90
10968;DHT22;5536;49.602;10.980;2023-08-12T07:18:57;21.00;99.90
10968;DHT22;5536;49.602;10.980;2023-08-12T07:21:26;21.10;99.90
10968;DHT22;5536;49.602;10.980;2023-08-12T07:23:53;21.20;99.90
10968;DHT22;5536;49.602;10.980;2023-08-12T07:26:20;21.40;99.90
10968;DHT22;5536;49.602;10.980;2023-08-12T07:28:47;21.50;99.90
10968;DHT22;5536;49.602;10.980;2023-08-12T07:31:14;21.60;99.90
10968;DHT22;5536;49.602;10.980;2023-08-12T07:33:41;21.60;99.90
10968;DHT22;5536;49.602;10.980;2023-08-12T07:36:08;21.70;99.90
10968;DHT22;5536;49.602;10.980;2023-08-12T07:38:37;21.80;99.90
10968;DHT22;5536;49.602;10.980;2023-08-12T07:41:04;21.90;99.90
10968;DHT22;5536;49.602;10.980;2023-08-12T07:43:31;22.00;99.90
10968;DHT22;5536;49.602;10.980;2023-08-12T07:45:58;22.10;99.90
10968;DHT22;5536;49.602;10.980;2023-08-12T07:48:25;22.10;99.90
10968;DHT22;5536;49.602;10.980;2023-08-12T07:50:56;22.20;99.90
10968;DHT22;5536;49.602;10.980;2023-08-12T07:53:23;22.30;99.90
10968;DHT22;5536;49.602;10.980;2023-08-12T07:55:51;22.40;99.90
10968;DHT22;5536;49.602;10.980;2023-08-12T07:58:19;22.40;99.90
10968;DHT22;5536;49.602;10.980;2023-08-12T08:00:46;22.50;99.90
10968;DHT22;5536;49.602;10.980;2023-08-12T08:03:13;22.60;99.90
10968;DHT22;5536;49.602;10.980;2023-08-12T08:05:40;22.70;99.90
10968;DHT22;5536;49.602;10.980;2023-08-12T08:08:08;22.70;99.90
10968;DHT22;5536;49.602;10.980;2023-08-12T08:10:35;22.70;99.90
10968;DHT22;5536;49.602;10.980;2023-08-12T08:13:04;22.70;99.90
10968;DHT22;5536;49.602;10.980;2023-08-12T08:15:31;22.80;99.90
10968;DHT22;5536;49.602;10.980;2023-08-12T08:17:58;22.80;99.90
10968;DHT22;5536;49.602;10.980;2023-08-12T08:20:25;22.80;99.90
10968;DHT22;5536;49.602;10.980;2023-08-12T08:22:52;22.90;99.90
10968;DHT22;5536;49.602;10.980;2023-08-12T08:25:21;23.00;99.90
10968;DHT22;5536;49.602;10.980;2023-08-12T08:27:48;23.00;99.90
10968;DHT22;5536;49.602;10.980;2023-08-12T08:30:17;23.00;99.90
10968;DHT22;5536;49.602;10.980;2023-08-12T08:32:44;23.20;99.90
10968;DHT22;5536;49.602;10.980;2023-08-12T08:35:12;23.30;99.90
10968;DHT22;5536;49.602;10.980;2023-08-12T08:37:41;23.40;99.90
10968;DHT22;5536;49.602;10.980;2023-08-12T08:40:09;23.50;99.90
10968;DHT22;5536;49.602;10.980;2023-08-12T08:42:37;23.50;99.90
10968;DHT22;5536;49.602;10.980;2023-08-12T08:45:10;23.50;99.90
10968;DHT22;5536;49.602;10.980;2023-08-12T08:47:41;23.70;99.90
10968;DHT22;5536;49.602;10.980;2023-08-12T08:50:09;23.80;99.90
10968;DHT22;5536;49.602;10.980;2023-08-12T08:52:37;24.00;99.90
10968;DHT22;5536;49.602;10.980;2023-08-12T08:55:05;24.00;99.90
10968;DHT22;5536;49.602;10.980;2023-08-12T08:57:32;24.00;99.90
10968;DHT22;5536;49.602;10.980;2023-08-12T08:59:59;24.20;99.90
10968;DHT22;5536;49.602;10.980;2023-08-12T09:02:27;24.40;99.90
10968;DHT22;5536;49.602;10.980;2023-08-12T09:04:56;24.40;99.90
10968;DHT22;5536;49.602;10.980;2023-08-12T09:07:23;24.60;99.90
10968;DHT22;5536;49.602;10.980;2023-08-12T09:09:52;24.60;99.90
10968;DHT22;5536;49.602;10.980;2023-08-12T09:12:20;24.60;99.90
10968;DHT22;5536;49.602;10.980;2023-08-12T09:14:48;24.50;99.90
10968;DHT22;5536;49.602;10.980;2023-08-12T09:17:15;24.50;99.90
10968;DHT22;5536;49.602;10.980;2023-08-12T09:19:42;24.40;99.90
10968;DHT22;5536;49.602;10.980;2023-08-12T09:22:12;24.30;99.90
10968;DHT22;5536;49.602;10.980;2023-08-12T09:24:39;24.10;99.90
10968;DHT22;5536;49.602;10.980;2023-08-12T09:27:06;24.10;99.90
10968;DHT22;5536;49.602;10.980;2023-08-12T09:29:41;24.30;99.90
10968;DHT22;5536;49.602;10.980;2023-08-12T09:32:10;24.30;99.90
10968;DHT22;5536;49.602;10.980;2023-08-12T09:34:37;24.30;99.90
10968;DHT22;5536;49.602;10.980;2023-08-12T09:37:04;24.50;99.90
10968;DHT22;5536;49.602;10.980;2023-08-12T09:39:33;24.60;99.90
10968;DHT22;5536;49.602;10.980;2023-08-12T09:42:00;24.80;99.90
10968;DHT22;5536;49.602;10.980;2023-08-12T09:44:28;24.90;99.90
10968;DHT22;5536;49.602;10.980;2023-08-12T09:46:58;24.80;99.90
10968;DHT22;5536;49.602;10.980;2023-08-12T09:49:25;24.80;99.90
10968;DHT22;5536;49.602;10.980;2023-08-12T09:51:54;24.80;99.90
10968;DHT22;5536;49.602;10.980;2023-08-12T09:54:21;25.00;99.90
10968;DHT22;5536;49.602;10.980;2023-08-12T09:56:57;25.00;99.90
10968;DHT22;5536;49.602;10.980;2023-08-12T09:59:26;25.10;99.90
10968;DHT22;5536;49.602;10.980;2023-08-12T10:01:54;25.10;99.90
10968;DHT22;5536;49.602;10.980;2023-08-12T10:04:22;25.10;99.90
10968;DHT22;5536;49.602;10.980;2023-08-12T10:06:50;25.10;99.90
10968;DHT22;5536;49.602;10.980;2023-08-12T10:09:18;25.10;99.90
10968;DHT22;5536;49.602;10.980;2023-08-12T10:11:46;25.00;99.90
10968;DHT22;5536;49.602;10.980;2023-08-12T10:14:15;25.00;99.90
10968;DHT22;5536;49.602;10.980;2023-08-12T10:16:46;25.10;99.90
10968;DHT22;5536;49.602;10.980;2023-08-12T10:19:15;25.20;99.90
10968;DHT22;5536;49.602;10.980;2023-08-12T10:21:44;25.40;99.90
10968;DHT22;5536;49.602;10.980;2023-08-12T10:24:11;25.50;99.90
10968;DHT22;5536;49.602;10.980;2023-08-12T10:26:40;25.60;99.90
10968;DHT22;5536;49.602;10.980;2023-08-12T10:29:08;25.80;99.90
10968;DHT22;5536;49.602;10.980;2023-08-12T10:31:38;25.90;99.90
10968;DHT22;5536;49.602;10.980;2023-08-12T10:34:05;26.00;99.90
10968;DHT22;5536;49.602;10.980;2023-08-12T10:36:32;26.20;99.90
10968;DHT22;5536;49.602;10.980;2023-08-12T10:39:00;26.40;99.90
10968;DHT22;5536;49.602;10.980;2023-08-12T10:41:28;26.40;99.90
10968;DHT22;5536;49.602;10.980;2023-08-12T10:43:59;26.60;99.90
10968;DHT22;5536;49.602;10.980;2023-08-12T10:46:32;26.60;99.90
10968;DHT22;5536;49.602;10.980;2023-08-12T10:49:03;26.80;99.90
10968;DHT22;5536;49.602;10.980;2023-08-12T10:51:55;27.00;99.90
10968;DHT22;5536;49.602;10.980;2023-08-12T10:54:23;27.20;99.90
10968;DHT22;5536;49.602;10.980;2023-08-12T10:57:09;27.40;99.90
10968;DHT22;5536;49.602;10.980;2023-08-12T10:59:51;27.40;99.90
10968;DHT22;5536;49.602;10.980;2023-08-12T11:02:21;27.50;99.90
10968;DHT22;5536;49.602;10.980;2023-08-12T11:04:52;27.80;99.90
10968;DHT22;5536;49.602;10.980;2023-08-12T11:07:21;28.00;99.90
10968;DHT22;5536;49.602;10.980;2023-08-12T11:09:51;28.20;99.90
10968;DHT22;5536;49.602;10.980;2023-08-12T11:12:27;28.30;99.90
10968;DHT22;5536;49.602;10.980;2023-08-12T11:14:56;28.00;99.90
10968;DHT22;5536;49.602;10.980;2023-08-12T11:17:29;27.70;99.90
10968;DHT22;5536;49.602;10.980;2023-08-12T11:19:58;27.80;99.90
10968;DHT22;5536;49.602;10.980;2023-08-12T11:22:25;28.30;99.90
10968;DHT22;5536;49.602;10.980;2023-08-12T11:24:53;28.80;99.90
10968;DHT22;5536;49.602;10.980;2023-08-12T11:27:21;28.60;99.90
10968;DHT22;5536;49.602;10.980;2023-08-12T11:29:49;28.80;99.90
10968;DHT22;5536;49.602;10.980;2023-08-12T11:32:16;29.00;99.90
10968;DHT22;5536;49.602;10.980;2023-08-12T11:34:44;29.10;99.90
10968;DHT22;5536;49.602;10.980;2023-08-12T11:37:12;28.80;99.90
10968;DHT22;5536;49.602;10.980;2023-08-12T11:39:39;27.90;99.90
10968;DHT22;5536;49.602;10.980;2023-08-12T11:42:06;27.70;99.90
10968;DHT22;5536;49.602;10.980;2023-08-12T11:44:33;28.40;99.90
10968;DHT22;5536;49.602;10.980;2023-08-12T11:47:00;29.00;99.90
10968;DHT22;5536;49.602;10.980;2023-08-12T11:49:27;29.70;99.90
10968;DHT22;5536;49.602;10.980;2023-08-12T11:51:54;30.00;99.90
10968;DHT22;5536;49.602;10.980;2023-08-12T11:54:23;30.40;99.90
10968;DHT22;5536;49.602;10.980;2023-08-12T11:56:50;30.70;99.90
10968;DHT22;5536;49.602;10.980;2023-08-12T11:59:18;31.00;99.90
10968;DHT22;5536;49.602;10.980;2023-08-12T12:01:48;31.00;99.90
10968;DHT22;5536;49.602;10.980;2023-08-12T12:04:16;31.30;99.90
10968;DHT22;5536;49.602;10.980;2023-08-12T12:06:46;31.40;99.90
10968;DHT22;5536;49.602;10.980;2023-08-12T12:09:14;31.60;99.90
10968;DHT22;5536;49.602;10.980;2023-08-12T12:11:45;32.00;99.90
10968;DHT22;5536;49.602;10.980;2023-08-12T12:14:12;32.10;99.90
10968;DHT22;5536;49.602;10.980;2023-08-12T12:16:42;32.40;99.90
10968;DHT22;5536;49.602;10.980;2023-08-12T12:19:11;32.20;99.90
10968;DHT22;5536;49.602;10.980;2023-08-12T12:21:40;32.10;99.90
10968;DHT22;5536;49.602;10.980;2023-08-12T12:24:08;32.20;99.90
10968;DHT22;5536;49.602;10.980;2023-08-12T12:26:36;32.50;99.90
10968;DHT22;5536;49.602;10.980;2023-08-12T12:29:05;32.70;99.90
10968;DHT22;5536;49.602;10.980;2023-08-12T12:31:33;32.40;99.90
10968;DHT22;5536;49.602;10.980;2023-08-12T12:34:00;32.60;99.90
10968;DHT22;5536;49.602;10.980;2023-08-12T12:36:27;32.50;99.90
10968;DHT22;5536;49.602;10.980;2023-08-12T12:38:54;32.70;99.90
10968;DHT22;5536;49.602;10.980;2023-08-12T12:41:21;33.00;99.90
10968;DHT22;5536;49.602;10.980;2023-08-12T12:43:48;32.80;99.90
10968;DHT22;5536;49.602;10.980;2023-08-12T12:46:17;32.60;99.90
10968;DHT22;5536;49.602;10.980;2023-08-12T12:48:44;32.60;99.90
10968;DHT22;5536;49.602;10.980;2023-08-12T12:51:11;33.00;99.90
10968;DHT22;5536;49.602;10.980;2023-08-12T12:53:39;33.20;99.90
10968;DHT22;5536;49.602;10.980;2023-08-12T12:56:06;33.90;99.90
10968;DHT22;5536;49.602;10.980;2023-08-12T12:58:35;33.90;99.90
10968;DHT22;5536;49.602;10.980;2023-08-12T13:01:03;34.00;99.90
10968;DHT22;5536;49.602;10.980;2023-08-12T13:03:32;33.00;99.90
10968;DHT22;5536;49.602;10.980;2023-08-12T13:05:59;31.80;99.90
10968;DHT22;5536;49.602;10.980;2023-08-12T13:08:28;31.10;99.90
10968;DHT22;5536;49.602;10.980;2023-08-12T13:10:56;30.70;99.90
10968;DHT22;5536;49.602;10.980;2023-08-12T13:13:23;30.30;99.90
10968;DHT22;5536;49.602;10.980;2023-08-12T13:15:50;30.30;99.90
10968;DHT22;5536;49.602;10.980;2023-08-12T13:18:18;30.30;99.90
10968;DHT22;5536;49.602;10.980;2023-08-12T13:20:46;31.30;99.90
10968;DHT22;5536;49.602;10.980;2023-08-12T13:23:14;32.60;99.90
10968;DHT22;5536;49.602;10.980;2023-08-12T13:25:41;32.50;99.90
10968;DHT22;5536;49.602;10.980;2023-08-12T13:28:09;32.00;99.90
10968;DHT22;5536;49.602;10.980;2023-08-12T13:30:36;31.60;99.90
10968;DHT22;5536;49.602;10.980;2023-08-12T13:33:03;31.20;99.90
10968;DHT22;5536;49.602;10.980;2023-08-12T13:35:31;30.90;99.90
10968;DHT22;5536;49.602;10.980;2023-08-12T13:37:59;30.50;99.90
10968;DHT22;5536;49.602;10.980;2023-08-12T13:40:27;30.10;99.90
10968;DHT22;5536;49.602;10.980;2023-08-12T13:42:54;29.80;99.90
10968;DHT22;5536;49.602;10.980;2023-08-12T13:45:21;29.50;99.90
10968;DHT22;5536;49.602;10.980;2023-08-12T13:47:50;29.30;99.90
10968;DHT22;5536;49.602;10.980;2023-08-12T13:50:17;29.00;99.90
10968;DHT22;5536;49.602;10.980;2023-08-12T13:52:45;28.60;99.90
10968;DHT22;5536;49.602;10.980;2023-08-12T13:55:14;28.30;99.90
10968;DHT22;5536;49.602;10.980;2023-08-12T13:57:41;27.00;99.90
10968;DHT22;5536;49.602;10.980;2023-08-12T14:00:09;25.00;99.90
10968;DHT22;5536;49.602;10.980;2023-08-12T14:02:38;22.30;99.90
10968;DHT22;5536;49.602;10.980;2023-08-12T14:05:06;21.60;99.90
10968;DHT22;5536;49.602;10.980;2023-08-12T14:07:36;21.30;99.90
10968;DHT22;5536;49.602;10.980;2023-08-12T14:10:04;21.00;99.90
10968;DHT22;5536;49.602;10.980;2023-08-12T14:12:32;20.80;99.90
10968;DHT22;5536;49.602;10.980;2023-08-12T14:15:00;20.70;99.90
10968;DHT22;5536;49.602;10.980;2023-08-12T14:17:27;20.70;99.90
10968;DHT22;5536;49.602;10.980;2023-08-12T14:19:54;20.70;99.90
10968;DHT22;5536;49.602;10.980;2023-08-12T14:22:21;20.70;99.90
10968;DHT22;5536;49.602;10.980;2023-08-12T14:24:48;20.80;99.90
10968;DHT22;5536;49.602;10.980;2023-08-12T14:27:16;20.70;99.90
10968;DHT22;5536;49.602;10.980;2023-08-12T14:29:45;20.50;99.90
10968;DHT22;5536;49.602;10.980;2023-08-12T14:32:12;20.50;99.90
10968;DHT22;5536;49.602;10.980;2023-08-12T14:34:41;20.50;99.90
10968;DHT22;5536;49.602;10.980;2023-08-12T14:37:10;20.20;99.90
10968;DHT22;5536;49.602;10.980;2023-08-12T14:39:37;20.00;99.90
10968;DHT22;5536;49.602;10.980;2023-08-12T14:42:08;19.90;99.90
10968;DHT22;5536;49.602;10.980;2023-08-12T14:44:36;20.00;99.90
10968;DHT22;5536;49.602;10.980;2023-08-12T14:47:04;20.00;99.90
10968;DHT22;5536;49.602;10.980;2023-08-12T14:49:32;19.90;99.90
10968;DHT22;5536;49.602;10.980;2023-08-12T14:51:59;19.90;99.90
10968;DHT22;5536;49.602;10.980;2023-08-12T14:54:26;19.90;99.90
10968;DHT22;5536;49.602;10.980;2023-08-12T14:56:53;20.00;99.90
10968;DHT22;5536;49.602;10.980;2023-08-12T14:59:20;20.00;99.90
10968;DHT22;5536;49.602;10.980;2023-08-12T15:01:47;20.00;99.90
10968;DHT22;5536;49.602;10.980;2023-08-12T15:04:15;20.00;99.90
10968;DHT22;5536;49.602;10.980;2023-08-12T15:06:42;20.00;99.90
10968;DHT22;5536;49.602;10.980;2023-08-12T15:09:09;20.10;99.90
10968;DHT22;5536;49.602;10.980;2023-08-12T15:11:36;20.10;99.90
10968;DHT22;5536;49.602;10.980;2023-08-12T15:14:06;20.10;99.90
10968;DHT22;5536;49.602;10.980;2023-08-12T15:16:33;20.10;99.90
10968;DHT22;5536;49.602;10.980;2023-08-12T15:19:00;20.10;99.90
10968;DHT22;5536;49.602;10.980;2023-08-12T15:21:29;19.90;99.90
10968;DHT22;5536;49.602;10.980;2023-08-12T15:23:56;19.80;99.90
10968;DHT22;5536;49.602;10.980;2023-08-12T15:26:24;19.90;99.90
10968;DHT22;5536;49.602;10.980;2023-08-12T15:28:51;20.00;99.90
10968;DHT22;5536;49.602;10.980;2023-08-12T15:31:18;20.10;99.90
10968;DHT22;5536;49.602;10.980;2023-08-12T15:33:45;20.10;99.90